Weather at Federal Border Guard No. 10 Helipad

Public forecast

Using degrees Celsius for public forecast. Weather courtesy of forecast.io.

Closest aviation weather report (METAR) to Federal Border Guard No. 10 Helipad

Closest report is Hatay Airport, 24.9 nm (46.1 km) SW.

2024/04/16 15:50 (retrieved 57 minutes ago)

LTDA 161550Z 22006KT CAVOK 25/15 Q1013 NOSIG

Closest aviation forecast (TAF) to Federal Border Guard No. 10 Helipad

Forecast is more than 12 hours old.

Closest forecast is Aleppo International Airport, 42.5 nm (78.7 km) SE.

2024/04/15 18:00 (retrieved 23 hours ago)

TAF OSAP 151700Z 1518/1618 VRB03KT CAVOK BECMG 1607/1609 32006KT 9999 SCT030